Time;durP1;ratioP1;P1;durP2;ratioP2;P2;SDS_P1;SDS_P2;PMS_P1;PMS_P2;Temp;Humidity;BMP_temperature;BMP_pressure;BME280_temperature;BME280_humidity;BME280_pressure;Samples;Min_cycle;Max_cycle;Signal;HPM_P1;HPM_P2
2021/11/15 00:00:56;;;;;;;21.40;11.85;;;7.00;98.00;;;;;;5017673;28;20022;-75
2021/11/15 00:03:23;;;;;;;24.27;11.98;;;7.00;98.00;;;;;;5039578;28;20049;-74
2021/11/15 00:05:49;;;;;;;20.08;10.40;;;7.00;98.00;;;;;;5028675;28;20048;-75
2021/11/15 00:08:20;;;;;;;19.25;10.52;;;7.00;98.00;;;;;;5030814;28;20037;-75
2021/11/15 00:10:47;;;;;;;18.25;10.25;;;7.00;98.00;;;;;;5030351;28;20018;-75
2021/11/15 00:13:15;;;;;;;20.50;11.05;;;6.90;98.00;;;;;;5050982;28;20029;-75
2021/11/15 00:15:47;;;;;;;18.95;10.02;;;6.90;98.00;;;;;;5030879;28;20027;-75
2021/11/15 00:18:17;;;;;;;21.92;11.45;;;6.90;98.00;;;;;;5042704;28;20048;-75
2021/11/15 00:20:47;;;;;;;18.23;10.63;;;6.80;98.00;;;;;;5030832;28;20025;-76
2021/11/15 00:23:16;;;;;;;18.75;10.15;;;6.80;98.00;;;;;;5047065;28;20067;-75
2021/11/15 00:25:42;;;;;;;22.08;11.05;;;6.80;98.00;;;;;;5027719;28;20024;-75
2021/11/15 00:28:12;;;;;;;21.42;11.25;;;6.80;98.00;;;;;;5033979;28;20029;-76
2021/11/15 00:30:39;;;;;;;24.45;12.80;;;6.80;98.00;;;;;;5029832;28;20053;-75
2021/11/15 00:33:05;;;;;;;19.55;11.23;;;6.80;98.00;;;;;;5025648;28;20639;-75
2021/11/15 00:35:31;;;;;;;19.92;10.75;;;6.80;98.00;;;;;;5046323;28;20061;-74
2021/11/15 00:37:59;;;;;;;23.13;12.50;;;6.80;98.00;;;;;;5034493;28;20061;-75
2021/11/15 00:40:25;;;;;;;21.27;11.35;;;6.70;98.00;;;;;;5024950;28;20328;-75
2021/11/15 00:42:56;;;;;;;22.50;12.38;;;6.60;98.00;;;;;;5037882;28;20377;-75
2021/11/15 00:45:28;;;;;;;23.85;12.13;;;6.60;98.00;;;;;;5031022;28;20033;-75
2021/11/15 00:47:54;;;;;;;24.85;12.57;;;6.60;98.00;;;;;;5025743;28;20024;-75
2021/11/15 00:50:21;;;;;;;28.85;14.52;;;6.60;98.00;;;;;;5029128;28;20374;-75
2021/11/15 00:52:49;;;;;;;26.38;13.43;;;6.60;98.00;;;;;;5025150;28;20046;-75
2021/11/15 00:55:19;;;;;;;22.30;12.30;;;6.50;98.00;;;;;;5030910;28;20022;-75
2021/11/15 00:57:45;;;;;;;26.55;13.90;;;6.50;98.00;;;;;;5040100;28;20142;-75
2021/11/15 01:00:17;;;;;;;25.40;14.10;;;6.50;98.00;;;;;;5048540;28;20079;-75
2021/11/15 01:02:47;;;;;;;24.10;13.38;;;6.40;98.00;;;;;;5028383;28;20112;-75
2021/11/15 01:05:14;;;;;;;24.60;12.80;;;6.40;98.00;;;;;;5033298;28;20029;-75
2021/11/15 01:07:40;;;;;;;25.88;13.32;;;6.40;98.00;;;;;;5052599;28;20079;-75
2021/11/15 01:10:09;;;;;;;21.45;12.75;;;6.40;98.00;;;;;;5033936;28;20022;-75
2021/11/15 01:12:35;;;;;;;21.55;12.48;;;6.40;98.00;;;;;;5023012;28;20025;-75
2021/11/15 01:15:01;;;;;;;23.60;12.82;;;6.40;98.00;;;;;;5025507;28;20371;-76
2021/11/15 01:17:27;;;;;;;20.25;11.75;;;6.30;98.00;;;;;;5022080;28;20108;-75
2021/11/15 01:19:53;;;;;;;22.10;11.90;;;6.30;98.00;;;;;;5034255;28;20342;-75
2021/11/15 01:22:18;;;;;;;23.25;12.27;;;6.30;98.00;;;;;;5030225;28;20034;-76
2021/11/15 01:24:44;;;;;;;24.05;12.60;;;6.30;98.00;;;;;;5028410;28;20034;-76
2021/11/15 01:27:10;;;;;;;29.17;13.07;;;6.30;98.00;;;;;;5036279;28;20034;-76
2021/11/15 01:29:35;;;;;;;22.55;12.45;;;6.20;98.00;;;;;;5034552;28;20052;-75
2021/11/15 01:32:01;;;;;;;26.80;12.35;;;6.20;98.00;;;;;;5031548;28;20049;-76
2021/11/15 01:34:29;;;;;;;23.45;12.73;;;6.20;98.00;;;;;;5031395;28;20115;-75
2021/11/15 01:36:55;;;;;;;23.88;12.95;;;6.20;98.00;;;;;;5038059;28;20163;-75
2021/11/15 01:39:22;;;;;;;20.73;10.93;;;6.20;98.00;;;;;;5051966;28;20036;-75
2021/11/15 01:41:52;;;;;;;21.70;11.90;;;6.10;98.00;;;;;;5034522;28;20026;-74
2021/11/15 01:44:18;;;;;;;24.20;12.13;;;6.20;98.00;;;;;;5034440;28;20034;-76
2021/11/15 01:46:44;;;;;;;23.50;11.57;;;6.20;98.00;;;;;;5035658;28;20429;-76
2021/11/15 01:49:15;;;;;;;25.15;13.07;;;6.20;98.00;;;;;;5034708;28;20045;-75
2021/11/15 01:51:42;;;;;;;21.08;12.30;;;6.20;98.00;;;;;;5033501;28;20014;-76
2021/11/15 01:54:08;;;;;;;20.30;11.30;;;6.10;98.00;;;;;;5034874;28;20468;-75
2021/11/15 01:56:33;;;;;;;24.70;13.60;;;6.00;98.00;;;;;;5033383;28;20029;-75
2021/11/15 01:59:02;;;;;;;23.00;13.07;;;6.00;98.00;;;;;;5035867;28;20062;-76
2021/11/15 02:01:28;;;;;;;22.15;12.38;;;6.00;98.00;;;;;;5034892;28;20072;-75
2021/11/15 02:03:54;;;;;;;21.67;11.90;;;6.00;98.00;;;;;;5034507;28;20110;-75
2021/11/15 02:06:20;;;;;;;21.38;12.63;;;6.00;98.00;;;;;;5035031;28;20422;-75
2021/11/15 02:08:46;;;;;;;23.63;13.07;;;6.10;98.00;;;;;;5035703;28;20440;-75
2021/11/15 02:11:12;;;;;;;24.77;13.90;;;6.10;98.00;;;;;;5034017;28;20425;-76
2021/11/15 02:13:38;;;;;;;21.63;12.18;;;6.00;98.00;;;;;;5034437;28;20036;-74
2021/11/15 02:16:04;;;;;;;23.67;13.07;;;6.00;98.00;;;;;;5033257;28;20026;-76
2021/11/15 02:18:30;;;;;;;24.65;13.25;;;6.00;98.00;;;;;;5026034;28;20033;-76
2021/11/15 02:21:00;;;;;;;23.08;13.07;;;6.00;98.00;;;;;;5034224;28;20078;-76
2021/11/15 02:23:28;;;;;;;23.50;12.82;;;6.00;98.00;;;;;;5033893;28;20044;-77
2021/11/15 02:25:56;;;;;;;25.23;13.32;;;6.00;98.00;;;;;;5033688;28;20026;-76
2021/11/15 02:28:31;;;;;;;22.42;11.60;;;6.00;98.00;;;;;;5033892;28;20112;-75
2021/11/15 02:30:57;;;;;;;23.58;12.55;;;5.90;98.00;;;;;;5050356;28;20160;-76
2021/11/15 02:33:23;;;;;;;23.77;13.23;;;5.90;98.00;;;;;;5033675;28;20029;-76
2021/11/15 02:35:49;;;;;;;23.95;13.90;;;5.90;98.00;;;;;;5035030;28;20059;-76
2021/11/15 02:38:15;;;;;;;26.73;12.95;;;5.80;98.00;;;;;;5034039;28;20057;-76
2021/11/15 02:40:41;;;;;;;27.10;13.60;;;5.80;98.00;;;;;;5033520;28;20601;-77
2021/11/15 02:43:06;;;;;;;23.40;12.45;;;5.70;98.00;;;;;;5034588;28;20361;-75
2021/11/15 02:45:32;;;;;;;22.73;12.95;;;5.70;98.00;;;;;;5033132;28;20017;-76
2021/11/15 02:47:58;;;;;;;27.30;12.90;;;5.70;98.00;;;;;;5050433;28;20303;-76
2021/11/15 02:50:27;;;;;;;22.50;12.20;;;5.70;98.00;;;;;;5050656;28;20101;-75
2021/11/15 02:52:56;;;;;;;22.58;12.13;;;5.70;98.00;;;;;;5034459;28;20022;-75
2021/11/15 02:55:23;;;;;;;22.95;13.35;;;5.70;98.00;;;;;;5032452;28;20076;-76
2021/11/15 02:57:50;;;;;;;19.95;11.13;;;5.70;98.00;;;;;;5034449;28;20025;-75
2021/11/15 03:00:21;;;;;;;21.15;11.85;;;5.80;98.00;;;;;;5049804;28;20036;-76
2021/11/15 03:02:48;;;;;;;19.48;11.30;;;5.80;98.00;;;;;;5033594;28;20046;-76
2021/11/15 03:05:14;;;;;;;23.92;13.57;;;5.80;98.00;;;;;;5033628;28;20088;-76
2021/11/15 03:07:45;;;;;;;24.35;12.68;;;5.70;98.00;;;;;;5033158;28;20026;-76
2021/11/15 03:10:11;;;;;;;24.90;13.80;;;5.80;98.00;;;;;;5049263;28;20021;-76
2021/11/15 03:12:37;;;;;;;21.85;12.20;;;5.70;98.00;;;;;;5032464;28;20441;-75
2021/11/15 03:15:03;;;;;;;20.80;11.60;;;5.70;98.00;;;;;;5034718;28;20029;-76
2021/11/15 03:17:30;;;;;;;20.40;12.15;;;5.60;98.00;;;;;;5032587;28;20029;-76
2021/11/15 03:19:55;;;;;;;22.88;12.32;;;5.60;98.00;;;;;;5036337;28;20048;-76
2021/11/15 03:22:21;;;;;;;21.08;11.00;;;5.60;98.00;;;;;;5031685;28;20064;-75
2021/11/15 03:24:47;;;;;;;23.13;11.98;;;5.60;98.00;;;;;;5030365;28;20053;-77
2021/11/15 03:27:13;;;;;;;22.77;10.68;;;5.60;98.00;;;;;;5039624;28;20104;-76
2021/11/15 03:29:39;;;;;;;23.02;12.20;;;5.60;98.00;;;;;;5049902;28;20116;-76
2021/11/15 03:32:07;;;;;;;21.08;12.10;;;5.60;98.00;;;;;;5048748;28;20077;-75
2021/11/15 03:34:33;;;;;;;22.35;12.35;;;5.50;98.00;;;;;;5047212;28;20056;-74
2021/11/15 03:36:59;;;;;;;25.33;13.45;;;5.50;98.00;;;;;;5036383;28;20410;-75
2021/11/15 03:39:24;;;;;;;24.70;12.00;;;5.40;98.00;;;;;;5032331;28;20045;-77
2021/11/15 03:41:50;;;;;;;22.23;12.55;;;5.50;98.00;;;;;;5052175;28;20323;-75
2021/11/15 03:44:17;;;;;;;26.50;13.93;;;5.50;98.00;;;;;;5040326;28;20025;-75
2021/11/15 03:46:43;;;;;;;25.77;13.35;;;5.50;98.00;;;;;;5036954;28;20026;-76
2021/11/15 03:49:14;;;;;;;25.40;13.07;;;5.40;98.00;;;;;;5036801;28;20029;-76
2021/11/15 03:51:41;;;;;;;23.23;12.80;;;5.40;98.00;;;;;;5037469;28;20022;-77
2021/11/15 03:54:06;;;;;;;21.30;11.65;;;5.40;98.00;;;;;;5036990;28;21631;-76
2021/11/15 03:56:33;;;;;;;22.88;12.07;;;5.40;98.00;;;;;;5035509;28;20033;-76
2021/11/15 03:58:59;;;;;;;24.52;13.65;;;5.40;98.00;;;;;;5036988;28;20025;-77
2021/11/15 04:01:29;;;;;;;27.55;14.75;;;5.40;98.00;;;;;;5037017;28;20028;-76
2021/11/15 04:04:01;;;;;;;26.10;13.85;;;5.40;98.00;;;;;;5036290;28;20041;-76
2021/11/15 04:06:30;;;;;;;24.13;13.98;;;5.40;98.00;;;;;;5036063;28;20100;-76
2021/11/15 04:09:04;;;;;;;26.35;13.75;;;5.40;98.00;;;;;;5034056;28;20025;-76
2021/11/15 04:11:31;;;;;;;27.25;13.57;;;5.40;98.00;;;;;;5049436;28;20438;-76
2021/11/15 04:14:02;;;;;;;25.60;14.20;;;5.40;98.00;;;;;;5035559;28;20295;-76
2021/11/15 04:16:29;;;;;;;25.60;12.90;;;5.40;98.00;;;;;;5035013;28;20025;-75
2021/11/15 04:18:59;;;;;;;24.30;13.32;;;5.40;98.00;;;;;;5034953;28;20033;-76
2021/11/15 04:21:30;;;;;;;25.35;13.40;;;5.40;98.00;;;;;;5036228;28;20033;-77
2021/11/15 04:23:55;;;;;;;28.45;13.43;;;5.30;98.00;;;;;;5035669;28;20025;-75
2021/11/15 04:26:21;;;;;;;31.13;15.23;;;5.30;98.00;;;;;;5054312;28;20082;-76
2021/11/15 04:28:48;;;;;;;25.35;14.23;;;5.30;98.00;;;;;;5041274;28;20018;-76
2021/11/15 04:31:14;;;;;;;27.70;13.30;;;5.30;98.00;;;;;;5034334;28;20030;-77
2021/11/15 04:33:40;;;;;;;27.77;14.95;;;5.30;98.00;;;;;;5034152;28;20026;-76
2021/11/15 04:36:06;;;;;;;25.17;13.10;;;5.20;98.00;;;;;;5032877;28;20168;-76
2021/11/15 04:38:31;;;;;;;31.25;15.60;;;5.20;98.00;;;;;;5033577;28;20491;-76
2021/11/15 04:40:57;;;;;;;24.90;13.35;;;5.20;98.00;;;;;;5034616;28;20373;-76
2021/11/15 04:43:23;;;;;;;26.60;14.45;;;5.20;98.00;;;;;;5050965;28;20326;-76
2021/11/15 04:45:49;;;;;;;25.73;13.68;;;5.20;98.00;;;;;;5033041;28;20025;-76
2021/11/15 04:48:15;;;;;;;27.35;15.27;;;5.20;98.00;;;;;;5035610;28;20028;-76
2021/11/15 04:50:41;;;;;;;27.40;14.48;;;5.10;98.00;;;;;;5035730;28;20067;-76
2021/11/15 04:53:06;;;;;;;25.05;13.85;;;5.10;98.00;;;;;;5036310;28;20083;-75
2021/11/15 04:55:34;;;;;;;27.83;14.13;;;5.10;98.00;;;;;;5034003;28;20033;-75
2021/11/15 04:58:00;;;;;;;23.30;13.55;;;5.10;98.00;;;;;;5035090;28;20042;-75
2021/11/15 05:00:29;;;;;;;24.38;12.95;;;5.10;98.00;;;;;;5034079;28;20080;-75
2021/11/15 05:02:54;;;;;;;22.13;12.55;;;5.20;98.00;;;;;;5035836;28;20076;-76
2021/11/15 05:05:21;;;;;;;24.75;13.55;;;5.20;98.00;;;;;;5034919;28;20395;-76
2021/11/15 05:07:53;;;;;;;22.70;13.02;;;5.10;98.00;;;;;;5038697;28;20026;-77
2021/11/15 05:10:20;;;;;;;27.15;13.23;;;5.10;98.00;;;;;;5032169;28;20454;-77
2021/11/15 05:12:45;;;;;;;22.50;13.20;;;5.10;98.00;;;;;;5033970;28;20105;-76
2021/11/15 05:15:13;;;;;;;20.27;10.75;;;5.10;98.00;;;;;;5049487;28;20116;-77
2021/11/15 05:17:40;;;;;;;20.90;11.00;;;5.10;98.00;;;;;;5034957;28;20021;-75
2021/11/15 05:20:08;;;;;;;19.63;10.65;;;5.10;98.00;;;;;;5038513;28;20055;-76
2021/11/15 05:22:34;;;;;;;21.60;10.95;;;5.10;98.00;;;;;;5031677;28;20022;-77
2021/11/15 05:25:00;;;;;;;21.65;11.10;;;5.00;98.00;;;;;;5023414;28;20395;-76
2021/11/15 05:27:26;;;;;;;20.70;11.00;;;5.10;98.00;;;;;;5033239;28;20053;-76
2021/11/15 05:29:52;;;;;;;22.40;11.55;;;5.10;98.00;;;;;;5034585;28;20025;-76
2021/11/15 05:32:17;;;;;;;21.52;10.68;;;5.10;98.00;;;;;;5035658;28;20037;-76
2021/11/15 05:34:43;;;;;;;21.33;11.52;;;5.10;98.00;;;;;;5033693;28;20410;-76
2021/11/15 05:37:09;;;;;;;23.17;10.93;;;5.10;98.00;;;;;;5034288;28;20025;-75
2021/11/15 05:39:35;;;;;;;25.85;12.77;;;5.10;98.00;;;;;;5032938;28;20068;-75
2021/11/15 05:42:00;;;;;;;22.40;12.00;;;5.00;98.00;;;;;;5034717;28;20033;-76
2021/11/15 05:44:27;;;;;;;20.00;11.40;;;5.10;98.00;;;;;;5034961;28;20076;-76
2021/11/15 05:46:53;;;;;;;23.02;12.20;;;5.10;98.00;;;;;;5034691;28;20022;-75
2021/11/15 05:49:20;;;;;;;19.98;10.85;;;5.10;98.00;;;;;;5034191;28;20225;-75
2021/11/15 05:51:45;;;;;;;20.60;11.43;;;5.10;98.00;;;;;;5031128;28;20029;-76
2021/11/15 05:54:11;;;;;;;22.08;12.57;;;5.10;98.00;;;;;;5034677;28;20086;-76
2021/11/15 05:56:37;;;;;;;22.15;12.10;;;5.10;98.00;;;;;;5032225;28;20037;-76
2021/11/15 05:59:03;;;;;;;21.73;11.43;;;5.00;98.00;;;;;;5030262;28;20052;-76
2021/11/15 06:01:29;;;;;;;23.58;12.63;;;5.00;98.00;;;;;;5034060;28;20029;-76
2021/11/15 06:03:55;;;;;;;23.10;12.07;;;5.00;98.00;;;;;;5032945;28;20065;-75
2021/11/15 06:06:20;;;;;;;25.67;13.80;;;5.00;98.00;;;;;;5034793;28;20024;-76
2021/11/15 06:08:46;;;;;;;25.33;12.90;;;5.00;98.00;;;;;;5034500;28;20052;-76
2021/11/15 06:11:12;;;;;;;22.70;12.70;;;4.90;98.00;;;;;;5034180;28;20052;-76
2021/11/15 06:13:38;;;;;;;26.45;13.93;;;4.90;98.00;;;;;;5034921;28;20056;-79
2021/11/15 06:16:04;;;;;;;26.42;13.43;;;4.90;98.00;;;;;;5032942;28;20030;-75
2021/11/15 06:18:29;;;;;;;27.17;12.93;;;4.80;98.00;;;;;;5033655;28;20029;-76
2021/11/15 06:20:55;;;;;;;27.23;13.80;;;4.80;98.00;;;;;;5031486;28;20473;-76
2021/11/15 06:23:21;;;;;;;24.70;13.52;;;4.80;98.00;;;;;;5035037;28;20030;-76
2021/11/15 06:25:47;;;;;;;27.25;14.60;;;4.90;98.00;;;;;;5032110;28;20048;-75
2021/11/15 06:28:13;;;;;;;26.52;14.05;;;4.90;98.00;;;;;;5023164;28;20038;-75
2021/11/15 06:30:39;;;;;;;24.60;13.43;;;4.90;98.00;;;;;;5020340;28;20052;-75
2021/11/15 06:33:05;;;;;;;28.50;13.95;;;4.90;98.00;;;;;;5030217;28;20385;-75
2021/11/15 06:35:31;;;;;;;26.90;12.93;;;4.90;98.00;;;;;;5015215;28;20105;-74
2021/11/15 06:37:57;;;;;;;25.75;13.98;;;4.90;98.00;;;;;;5021136;28;20022;-75
2021/11/15 06:40:24;;;;;;;25.60;13.32;;;4.90;98.00;;;;;;5032254;28;20021;-76
2021/11/15 06:42:50;;;;;;;28.10;14.52;;;4.90;98.00;;;;;;5033863;28;20030;-76
2021/11/15 06:45:19;;;;;;;27.63;14.82;;;4.90;98.00;;;;;;5033081;28;20021;-77
2021/11/15 06:47:46;;;;;;;23.20;13.70;;;5.00;98.00;;;;;;5031364;28;20315;-76
2021/11/15 06:50:14;;;;;;;26.98;15.07;;;5.00;98.00;;;;;;5031747;28;20033;-76
2021/11/15 06:52:41;;;;;;;23.30;13.43;;;5.00;98.00;;;;;;5035249;28;20031;-76
2021/11/15 06:55:07;;;;;;;25.83;14.57;;;4.90;98.00;;;;;;5017591;28;20021;-76
2021/11/15 06:57:34;;;;;;;26.75;14.55;;;4.90;98.00;;;;;;5034158;28;20029;-78
2021/11/15 07:00:00;;;;;;;30.30;15.15;;;4.90;98.00;;;;;;5051491;28;20036;-76
2021/11/15 07:02:25;;;;;;;23.52;12.90;;;4.90;98.00;;;;;;5038874;28;20045;-75
2021/11/15 07:04:51;;;;;;;27.98;14.93;;;4.90;98.00;;;;;;5029425;28;20064;-76
2021/11/15 07:07:17;;;;;;;23.77;12.60;;;4.90;98.00;;;;;;5023512;28;20041;-76
2021/11/15 07:09:46;;;;;;;24.92;12.48;;;4.80;98.00;;;;;;5038000;28;20029;-76
2021/11/15 07:12:12;;;;;;;24.75;12.82;;;4.90;98.00;;;;;;5038861;28;20017;-76
2021/11/15 07:14:38;;;;;;;22.52;11.50;;;4.90;98.00;;;;;;5037510;28;20033;-76
2021/11/15 07:17:05;;;;;;;22.92;12.35;;;4.90;98.00;;;;;;5028666;28;20036;-76
2021/11/15 07:19:31;;;;;;;22.60;12.48;;;4.90;98.00;;;;;;5054420;28;20025;-76
2021/11/15 07:21:56;;;;;;;24.48;12.13;;;4.90;98.00;;;;;;5022365;28;20030;-75
2021/11/15 07:24:22;;;;;;;26.63;13.55;;;4.90;98.00;;;;;;5019024;28;20475;-77
2021/11/15 07:26:48;;;;;;;24.15;13.07;;;4.90;98.00;;;;;;5029934;28;20025;-77
2021/11/15 07:29:13;;;;;;;24.65;12.63;;;4.90;98.00;;;;;;5037119;28;20363;-76
2021/11/15 07:31:40;;;;;;;22.25;11.95;;;4.90;98.00;;;;;;5026853;28;20029;-76
2021/11/15 07:34:06;;;;;;;23.02;11.80;;;5.00;98.00;;;;;;5024850;28;20026;-76
2021/11/15 07:36:32;;;;;;;25.27;13.18;;;5.00;98.00;;;;;;5038662;28;20029;-77
2021/11/15 07:38:58;;;;;;;23.88;12.68;;;4.90;98.00;;;;;;5050607;28;20025;-76
2021/11/15 07:41:24;;;;;;;24.15;13.00;;;5.00;98.00;;;;;;5037223;28;20029;-76
2021/11/15 07:43:49;;;;;;;28.50;14.40;;;4.90;98.00;;;;;;5034055;28;20091;-76
2021/11/15 07:46:15;;;;;;;29.30;14.95;;;5.00;98.00;;;;;;5038412;28;20048;-75
2021/11/15 07:48:43;;;;;;;25.50;13.18;;;5.00;98.00;;;;;;5044263;28;20326;-75
2021/11/15 07:51:09;;;;;;;23.77;13.70;;;5.00;98.00;;;;;;5035516;28;20045;-75
2021/11/15 07:53:37;;;;;;;24.85;12.88;;;5.00;98.00;;;;;;5036997;28;20055;-75
2021/11/15 07:56:07;;;;;;;24.80;13.07;;;5.00;98.00;;;;;;5032555;28;20072;-74
2021/11/15 07:58:35;;;;;;;23.15;11.88;;;5.00;98.00;;;;;;5018311;28;20021;-76
2021/11/15 08:01:01;;;;;;;20.77;12.40;;;5.00;98.00;;;;;;5022465;28;20375;-77
2021/11/15 08:03:27;;;;;;;19.23;11.07;;;5.00;98.00;;;;;;5019828;28;20050;-76
2021/11/15 08:05:53;;;;;;;19.70;10.95;;;5.00;98.00;;;;;;5034180;28;20029;-77
2021/11/15 08:08:19;;;;;;;21.60;11.20;;;5.10;98.00;;;;;;5036038;28;20021;-76
2021/11/15 08:10:45;;;;;;;22.80;11.55;;;5.10;98.00;;;;;;5034643;28;20033;-77
2021/11/15 08:13:10;;;;;;;21.13;10.90;;;5.10;98.00;;;;;;5036431;28;20025;-76
2021/11/15 08:15:36;;;;;;;22.77;11.88;;;5.10;98.00;;;;;;5035402;28;20355;-77
2021/11/15 08:18:05;;;;;;;22.25;12.05;;;5.00;98.00;;;;;;5036333;28;20040;-76
2021/11/15 08:20:37;;;;;;;26.30;14.13;;;5.10;98.00;;;;;;5036819;28;20032;-76
2021/11/15 08:23:13;;;;;;;24.17;12.73;;;5.10;98.00;;;;;;5034375;28;20033;-76
2021/11/15 08:26:09;;;;;;;21.75;11.75;;;5.10;98.00;;;;;;5052042;28;20025;-75
2021/11/15 08:28:35;;;;;;;20.67;11.75;;;5.10;98.00;;;;;;5035370;28;20030;-76
2021/11/15 08:31:03;;;;;;;22.60;11.30;;;5.20;98.00;;;;;;5037531;28;20022;-75
2021/11/15 08:33:30;;;;;;;19.23;10.18;;;5.10;98.00;;;;;;5036857;28;20114;-75
2021/11/15 08:35:57;;;;;;;20.40;11.07;;;5.20;98.00;;;;;;5037314;28;20026;-76
2021/11/15 08:38:46;;;;;;;21.50;11.57;;;5.20;98.00;;;;;;5035307;28;20022;-76
2021/11/15 08:41:15;;;;;;;20.42;11.30;;;5.20;98.00;;;;;;5030813;28;20018;-76
2021/11/15 08:43:41;;;;;;;19.35;10.52;;;5.20;98.00;;;;;;5036682;28;20025;-76
2021/11/15 08:46:08;;;;;;;20.05;10.55;;;5.20;98.00;;;;;;5035929;28;20314;-76
2021/11/15 08:48:35;;;;;;;19.20;10.48;;;5.20;98.00;;;;;;5037063;28;20061;-76
2021/11/15 08:51:05;;;;;;;19.63;10.50;;;5.20;98.00;;;;;;5037102;28;20021;-76
2021/11/15 08:53:31;;;;;;;17.73;10.57;;;5.20;98.00;;;;;;5036269;28;20025;-77
2021/11/15 08:55:57;;;;;;;19.85;10.48;;;5.30;98.00;;;;;;5035484;28;20387;-76
2021/11/15 08:58:23;;;;;;;20.77;9.65;;;5.20;98.00;;;;;;5037020;28;20101;-76
2021/11/15 09:00:48;;;;;;;18.33;10.40;;;5.20;98.00;;;;;;5036150;28;20059;-76
2021/11/15 09:03:16;;;;;;;17.55;10.20;;;5.20;98.00;;;;;;5035775;28;20046;-76
2021/11/15 09:05:41;;;;;;;20.33;10.60;;;5.30;98.00;;;;;;5036778;28;20053;-76
2021/11/15 09:08:07;;;;;;;19.35;10.80;;;5.30;98.00;;;;;;5033822;28;20326;-76
2021/11/15 09:10:33;;;;;;;20.20;10.68;;;5.30;98.00;;;;;;5035652;28;20026;-77
2021/11/15 09:12:59;;;;;;;22.92;10.88;;;5.40;98.00;;;;;;5035795;28;20026;-76
2021/11/15 09:15:24;;;;;;;21.10;11.10;;;5.40;98.00;;;;;;5036677;28;20033;-76
2021/11/15 09:17:50;;;;;;;18.02;9.85;;;5.30;98.00;;;;;;5036761;28;20445;-76
2021/11/15 09:20:16;;;;;;;19.20;10.05;;;5.30;98.00;;;;;;5036654;28;20029;-76
2021/11/15 09:22:42;;;;;;;19.45;10.98;;;5.20;98.00;;;;;;5035016;28;20039;-75
2021/11/15 09:25:09;;;;;;;18.42;9.77;;;5.30;98.00;;;;;;5035323;28;20025;-76
2021/11/15 09:27:36;;;;;;;19.13;9.98;;;5.20;98.00;;;;;;5036548;28;20319;-75
2021/11/15 09:30:03;;;;;;;16.65;9.63;;;5.20;98.00;;;;;;5018703;28;20022;-77
2021/11/15 09:32:29;;;;;;;17.98;9.25;;;5.30;98.00;;;;;;5031789;28;20033;-76
2021/11/15 09:34:55;;;;;;;20.25;11.27;;;5.20;98.00;;;;;;5036210;28;20469;-77
2021/11/15 09:37:21;;;;;;;16.80;9.18;;;5.20;98.00;;;;;;5035977;28;20034;-76
2021/11/15 09:39:50;;;;;;;16.25;8.45;;;5.30;98.00;;;;;;5034159;28;20425;-76
2021/11/15 09:42:17;;;;;;;15.63;8.23;;;5.40;98.00;;;;;;5036222;28;20034;-76
2021/11/15 09:44:44;;;;;;;16.73;9.23;;;5.40;98.00;;;;;;5036154;28;20037;-76
2021/11/15 09:47:10;;;;;;;15.65;8.20;;;5.40;98.00;;;;;;5035010;28;20017;-76
2021/11/15 09:49:37;;;;;;;17.13;9.43;;;5.40;98.00;;;;;;5036156;28;20022;-76
2021/11/15 09:52:03;;;;;;;15.50;8.48;;;5.40;98.00;;;;;;5035970;28;20315;-77
2021/11/15 09:54:29;;;;;;;15.10;7.63;;;5.40;98.00;;;;;;5033216;28;20044;-77
2021/11/15 09:56:55;;;;;;;13.98;7.40;;;5.40;98.00;;;;;;5034340;28;20030;-77
2021/11/15 09:59:24;;;;;;;13.07;7.22;;;5.50;98.00;;;;;;5035906;28;20036;-76
2021/11/15 10:01:56;;;;;;;15.10;7.95;;;5.50;98.00;;;;;;5035667;28;20156;-77
2021/11/15 10:04:22;;;;;;;12.23;7.68;;;5.50;98.00;;;;;;5035738;28;20030;-76
2021/11/15 10:06:52;;;;;;;16.27;8.85;;;5.40;98.00;;;;;;5035880;28;20014;-77
2021/11/15 10:09:29;;;;;;;15.45;8.77;;;5.40;98.00;;;;;;5034904;28;20026;-76
2021/11/15 10:11:56;;;;;;;16.75;9.13;;;5.30;98.00;;;;;;5034474;28;20048;-78
2021/11/15 10:14:22;;;;;;;17.58;9.15;;;5.30;98.00;;;;;;5035588;28;20177;-77
2021/11/15 10:16:58;;;;;;;17.33;8.93;;;5.30;98.00;;;;;;5035599;28;20104;-76
2021/11/15 10:19:28;;;;;;;16.27;9.05;;;5.30;98.00;;;;;;5035629;28;20033;-76
2021/11/15 10:22:00;;;;;;;14.60;7.85;;;5.30;98.00;;;;;;5035555;28;20104;-76
2021/11/15 10:24:35;;;;;;;18.98;9.73;;;5.50;98.00;;;;;;5035618;28;20376;-76
2021/11/15 10:27:16;;;;;;;16.88;9.82;;;5.60;98.00;;;;;;5034890;28;20025;-76
2021/11/15 10:29:48;;;;;;;15.43;8.10;;;5.60;98.00;;;;;;5035548;28;20068;-76
2021/11/15 10:32:13;;;;;;;15.68;8.90;;;5.70;98.00;;;;;;5035605;28;20026;-76
2021/11/15 10:34:43;;;;;;;17.85;9.77;;;5.70;98.00;;;;;;5035411;28;20068;-76
2021/11/15 10:37:20;;;;;;;16.08;9.02;;;5.70;98.00;;;;;;5055239;28;20416;-76
2021/11/15 10:39:52;;;;;;;16.77;8.82;;;5.70;98.00;;;;;;5054015;28;20025;-75
2021/11/15 10:42:25;;;;;;;15.88;8.70;;;5.80;98.00;;;;;;5039637;28;20048;-75
2021/11/15 10:44:54;;;;;;;17.07;9.50;;;5.70;98.00;;;;;;5039415;28;20026;-74
2021/11/15 10:47:26;;;;;;;16.63;8.65;;;5.80;98.00;;;;;;5039580;28;20256;-75
2021/11/15 10:50:24;;;;;;;18.92;9.52;;;5.80;98.00;;;;;;5039311;28;20353;-75
2021/11/15 10:53:13;;;;;;;15.95;8.55;;;5.80;98.00;;;;;;5034698;28;20408;-77
2021/11/15 10:55:48;;;;;;;16.33;8.88;;;5.90;98.00;;;;;;5037043;28;20079;-76
2021/11/15 10:58:14;;;;;;;;;;;6.00;98.00;;;;;;5038646;28;20022;-76
2021/11/15 11:00:50;;;;;;;18.88;10.18;;;6.00;98.00;;;;;;5038187;28;19905;-76
2021/11/15 11:03:20;;;;;;;19.88;10.52;;;5.80;98.00;;;;;;5029472;28;20132;-77
2021/11/15 11:05:48;;;;;;;18.55;10.23;;;5.60;98.00;;;;;;5034820;28;20141;-77
2021/11/15 11:08:29;;;;;;;18.75;10.07;;;5.60;98.00;;;;;;5019401;28;20026;-77
2021/11/15 11:11:30;;;;;;;17.25;9.25;;;5.70;98.00;;;;;;5018056;28;20022;-77
2021/11/15 11:14:02;;;;;;;16.92;9.27;;;5.70;98.00;;;;;;5033423;28;20033;-76
2021/11/15 11:16:40;;;;;;;17.33;9.35;;;5.90;98.00;;;;;;5037863;28;20033;-76
2021/11/15 11:19:30;;;;;;;18.58;10.30;;;6.00;98.00;;;;;;5037822;28;20030;-77
2021/11/15 11:24:57;;;;;;;18.35;9.77;;;6.20;98.00;;;;;;5038790;28;20037;-76
2021/11/15 11:27:26;;;;;;;17.35;8.80;;;6.10;98.00;;;;;;5038045;28;20021;-77
2021/11/15 11:29:53;;;;;;;14.27;7.80;;;6.20;98.00;;;;;;5038266;28;20499;-76
2021/11/15 11:32:23;;;;;;;18.02;9.35;;;6.30;98.00;;;;;;5023838;28;20033;-76
2021/11/15 11:34:55;;;;;;;15.35;8.55;;;6.40;98.00;;;;;;5023877;28;20022;-76
2021/11/15 11:37:25;;;;;;;14.05;8.18;;;6.30;98.00;;;;;;5038780;28;20033;-77
2021/11/15 11:39:51;;;;;;;17.10;9.50;;;6.30;98.00;;;;;;5036598;28;20056;-77
2021/11/15 11:42:18;;;;;;;18.00;9.38;;;6.30;98.00;;;;;;5037933;28;20454;-76
2021/11/15 11:44:46;;;;;;;16.75;9.60;;;6.30;98.00;;;;;;5037685;28;20065;-76
2021/11/15 11:47:15;;;;;;;18.13;9.05;;;6.30;98.00;;;;;;5037777;28;20022;-76
2021/11/15 11:49:46;;;;;;;18.02;10.13;;;6.30;98.00;;;;;;5036653;28;20025;-77
2021/11/15 11:52:17;;;;;;;16.27;7.93;;;6.30;98.00;;;;;;5037720;28;20049;-77
2021/11/15 11:54:49;;;;;;;15.60;8.30;;;6.40;98.00;;;;;;5035556;28;20025;-76
2021/11/15 11:57:21;;;;;;;14.70;8.15;;;6.30;98.00;;;;;;5027891;28;20113;-76
2021/11/15 11:59:47;;;;;;;14.27;7.68;;;6.20;98.00;;;;;;5038249;28;20087;-76
2021/11/15 12:02:18;;;;;;;15.15;8.77;;;6.40;98.00;;;;;;5027637;28;20339;-76
2021/11/15 12:04:59;;;;;;;16.60;9.55;;;6.20;98.00;;;;;;5038223;28;20033;-77
2021/11/15 12:07:32;;;;;;;15.98;9.32;;;6.30;98.00;;;;;;5033407;28;20026;-76
2021/11/15 12:10:14;;;;;;;15.45;8.18;;;6.40;98.00;;;;;;5023019;28;20483;-76
2021/11/15 12:13:07;;;;;;;18.17;9.00;;;6.50;98.00;;;;;;5022246;28;20026;-77
2021/11/15 12:15:34;;;;;;;13.88;8.23;;;6.30;98.00;;;;;;5025148;28;20037;-76
2021/11/15 12:18:15;;;;;;;17.27;9.65;;;6.30;98.00;;;;;;5029694;28;20080;-76
2021/11/15 12:21:06;;;;;;;20.35;10.25;;;6.40;98.00;;;;;;5016969;28;20427;-77
2021/11/15 12:23:35;;;;;;;17.85;9.88;;;6.40;98.00;;;;;;5045870;28;20377;-76
2021/11/15 12:26:03;;;;;;;18.20;9.52;;;6.40;98.00;;;;;;5031598;28;20060;-76
2021/11/15 12:28:33;;;;;;;17.65;9.80;;;6.30;98.00;;;;;;5017888;28;20084;-76
2021/11/15 12:31:00;;;;;;;19.80;10.52;;;6.40;98.00;;;;;;5018068;28;20025;-76
2021/11/15 12:33:31;;;;;;;15.48;8.73;;;6.40;98.00;;;;;;5017752;28;20022;-77
2021/11/15 12:35:59;;;;;;;16.83;9.65;;;6.50;98.00;;;;;;5017758;28;20018;-76
2021/11/15 12:38:47;;;;;;;19.63;10.43;;;6.50;98.00;;;;;;5017579;28;20026;-76
2021/11/15 12:41:19;;;;;;;16.25;8.40;;;6.40;98.00;;;;;;5018095;28;20300;-77
2021/11/15 12:46:57;;;;;;;15.88;8.90;;;6.30;98.00;;;;;;5036896;28;20104;-76
2021/11/15 12:49:36;;;;;;;16.98;9.82;;;6.30;98.00;;;;;;5035514;28;20136;-76
2021/11/15 12:52:11;;;;;;;15.38;9.07;;;6.40;98.00;;;;;;5036320;28;20071;-76